sensor_id;sensor_type;location;lat;lon;timestamp;P1;durP1;ratioP1;P2;durP2;ratioP2
4839;SDS011;2434;48.486;7.964;2022-11-12T00:00:01;18.43;;;11.57;;
4839;SDS011;2434;48.486;7.964;2022-11-12T00:02:48;18.23;;;10.50;;
4839;SDS011;2434;48.486;7.964;2022-11-12T00:05:35;11.93;;;8.87;;
4839;SDS011;2434;48.486;7.964;2022-11-12T00:08:22;9.03;;;7.47;;
4839;SDS011;2434;48.486;7.964;2022-11-12T00:11:09;10.30;;;7.93;;
4839;SDS011;2434;48.486;7.964;2022-11-12T00:13:56;11.70;;;7.30;;
4839;SDS011;2434;48.486;7.964;2022-11-12T00:16:45;8.67;;;7.77;;
4839;SDS011;2434;48.486;7.964;2022-11-12T00:19:31;9.20;;;8.20;;
4839;SDS011;2434;48.486;7.964;2022-11-12T00:22:19;8.50;;;7.27;;
4839;SDS011;2434;48.486;7.964;2022-11-12T00:25:06;15.03;;;7.60;;
4839;SDS011;2434;48.486;7.964;2022-11-12T00:27:59;20.77;;;12.17;;
4839;SDS011;2434;48.486;7.964;2022-11-12T00:30:47;14.60;;;9.80;;
4839;SDS011;2434;48.486;7.964;2022-11-12T00:33:37;13.10;;;7.97;;
4839;SDS011;2434;48.486;7.964;2022-11-12T00:36:24;13.43;;;7.37;;
4839;SDS011;2434;48.486;7.964;2022-11-12T00:39:11;11.53;;;7.43;;
4839;SDS011;2434;48.486;7.964;2022-11-12T00:41:58;9.90;;;7.83;;
4839;SDS011;2434;48.486;7.964;2022-11-12T00:44:45;11.23;;;9.30;;
4839;SDS011;2434;48.486;7.964;2022-11-12T00:47:33;33.87;;;20.83;;
4839;SDS011;2434;48.486;7.964;2022-11-12T00:50:22;20.40;;;15.57;;
4839;SDS011;2434;48.486;7.964;2022-11-12T00:53:08;11.00;;;9.60;;
4839;SDS011;2434;48.486;7.964;2022-11-12T00:55:59;14.80;;;8.67;;
4839;SDS011;2434;48.486;7.964;2022-11-12T00:58:47;9.33;;;7.43;;
4839;SDS011;2434;48.486;7.964;2022-11-12T01:01:34;9.50;;;7.43;;
4839;SDS011;2434;48.486;7.964;2022-11-12T01:04:20;8.50;;;7.60;;
4839;SDS011;2434;48.486;7.964;2022-11-12T01:07:09;7.97;;;6.87;;
4839;SDS011;2434;48.486;7.964;2022-11-12T01:09:56;19.17;;;8.67;;
4839;SDS011;2434;48.486;7.964;2022-11-12T01:12:44;8.40;;;7.50;;
4839;SDS011;2434;48.486;7.964;2022-11-12T01:15:31;7.33;;;6.50;;
4839;SDS011;2434;48.486;7.964;2022-11-12T01:18:18;8.07;;;7.10;;
4839;SDS011;2434;48.486;7.964;2022-11-12T01:21:05;10.23;;;7.37;;
4839;SDS011;2434;48.486;7.964;2022-11-12T01:23:55;7.63;;;6.83;;
4839;SDS011;2434;48.486;7.964;2022-11-12T01:26:43;7.83;;;7.03;;
4839;SDS011;2434;48.486;7.964;2022-11-12T01:29:30;8.30;;;6.97;;
4839;SDS011;2434;48.486;7.964;2022-11-12T01:32:17;7.00;;;6.30;;
4839;SDS011;2434;48.486;7.964;2022-11-12T01:35:04;6.80;;;6.17;;
4839;SDS011;2434;48.486;7.964;2022-11-12T01:37:51;9.27;;;5.80;;
4839;SDS011;2434;48.486;7.964;2022-11-12T01:40:40;7.33;;;6.47;;
4839;SDS011;2434;48.486;7.964;2022-11-12T01:43:27;7.23;;;6.40;;
4839;SDS011;2434;48.486;7.964;2022-11-12T01:46:16;8.50;;;6.90;;
4839;SDS011;2434;48.486;7.964;2022-11-12T01:49:05;7.57;;;6.73;;
4839;SDS011;2434;48.486;7.964;2022-11-12T01:51:57;6.23;;;5.60;;
4839;SDS011;2434;48.486;7.964;2022-11-12T01:54:49;6.40;;;5.30;;
4839;SDS011;2434;48.486;7.964;2022-11-12T01:57:40;6.73;;;6.03;;
4839;SDS011;2434;48.486;7.964;2022-11-12T02:00:34;7.43;;;6.73;;
4839;SDS011;2434;48.486;7.964;2022-11-12T02:03:22;8.47;;;4.93;;
4839;SDS011;2434;48.486;7.964;2022-11-12T02:06:11;10.97;;;7.53;;
4839;SDS011;2434;48.486;7.964;2022-11-12T02:08:59;6.70;;;5.90;;
4839;SDS011;2434;48.486;7.964;2022-11-12T02:11:46;6.53;;;5.83;;
4839;SDS011;2434;48.486;7.964;2022-11-12T02:14:34;11.37;;;6.30;;
4839;SDS011;2434;48.486;7.964;2022-11-12T02:17:20;7.03;;;5.50;;
4839;SDS011;2434;48.486;7.964;2022-11-12T02:20:08;6.60;;;5.83;;
4839;SDS011;2434;48.486;7.964;2022-11-12T02:22:57;6.83;;;6.10;;
4839;SDS011;2434;48.486;7.964;2022-11-12T02:25:43;6.83;;;5.77;;
4839;SDS011;2434;48.486;7.964;2022-11-12T02:28:30;7.57;;;6.47;;
4839;SDS011;2434;48.486;7.964;2022-11-12T02:31:18;6.70;;;6.00;;
4839;SDS011;2434;48.486;7.964;2022-11-12T02:34:05;6.13;;;5.53;;
4839;SDS011;2434;48.486;7.964;2022-11-12T02:36:52;6.50;;;5.80;;
4839;SDS011;2434;48.486;7.964;2022-11-12T02:39:40;6.60;;;5.13;;
4839;SDS011;2434;48.486;7.964;2022-11-12T02:42:27;5.93;;;5.23;;
4839;SDS011;2434;48.486;7.964;2022-11-12T02:45:14;6.23;;;5.63;;
4839;SDS011;2434;48.486;7.964;2022-11-12T02:48:02;7.40;;;5.23;;
4839;SDS011;2434;48.486;7.964;2022-11-12T02:50:49;6.37;;;5.77;;
4839;SDS011;2434;48.486;7.964;2022-11-12T02:53:35;6.50;;;5.90;;
4839;SDS011;2434;48.486;7.964;2022-11-12T02:56:24;5.90;;;5.00;;
4839;SDS011;2434;48.486;7.964;2022-11-12T02:59:11;5.37;;;4.87;;
4839;SDS011;2434;48.486;7.964;2022-11-12T03:01:58;6.37;;;5.20;;
4839;SDS011;2434;48.486;7.964;2022-11-12T03:04:45;6.20;;;5.60;;
4839;SDS011;2434;48.486;7.964;2022-11-12T03:07:34;7.23;;;5.10;;
4839;SDS011;2434;48.486;7.964;2022-11-12T03:10:21;5.57;;;5.00;;
4839;SDS011;2434;48.486;7.964;2022-11-12T03:13:09;5.10;;;4.60;;
4839;SDS011;2434;48.486;7.964;2022-11-12T03:15:59;5.40;;;4.90;;
4839;SDS011;2434;48.486;7.964;2022-11-12T03:18:45;6.23;;;5.50;;
4839;SDS011;2434;48.486;7.964;2022-11-12T03:21:32;5.73;;;5.13;;
4839;SDS011;2434;48.486;7.964;2022-11-12T03:24:19;6.03;;;5.43;;
4839;SDS011;2434;48.486;7.964;2022-11-12T03:27:06;6.67;;;5.60;;
4839;SDS011;2434;48.486;7.964;2022-11-12T03:29:54;6.03;;;5.43;;
4839;SDS011;2434;48.486;7.964;2022-11-12T03:32:41;6.50;;;5.63;;
4839;SDS011;2434;48.486;7.964;2022-11-12T03:35:28;5.27;;;4.77;;
4839;SDS011;2434;48.486;7.964;2022-11-12T03:38:16;4.83;;;4.43;;
4839;SDS011;2434;48.486;7.964;2022-11-12T03:41:03;7.40;;;5.00;;
4839;SDS011;2434;48.486;7.964;2022-11-12T03:43:50;4.50;;;4.20;;
4839;SDS011;2434;48.486;7.964;2022-11-12T03:46:38;4.10;;;3.80;;
4839;SDS011;2434;48.486;7.964;2022-11-12T03:49:28;8.97;;;4.80;;
4839;SDS011;2434;48.486;7.964;2022-11-12T03:52:15;4.67;;;4.27;;
4839;SDS011;2434;48.486;7.964;2022-11-12T03:55:02;6.10;;;5.13;;
4839;SDS011;2434;48.486;7.964;2022-11-12T03:57:50;7.80;;;4.67;;
4839;SDS011;2434;48.486;7.964;2022-11-12T04:00:37;5.17;;;4.67;;
4839;SDS011;2434;48.486;7.964;2022-11-12T04:03:26;5.10;;;4.60;;
4839;SDS011;2434;48.486;7.964;2022-11-12T04:06:13;4.83;;;4.43;;
4839;SDS011;2434;48.486;7.964;2022-11-12T04:09:17;5.07;;;4.57;;
4839;SDS011;2434;48.486;7.964;2022-11-12T04:12:04;4.40;;;4.00;;
4839;SDS011;2434;48.486;7.964;2022-11-12T04:15:05;4.53;;;4.13;;
4839;SDS011;2434;48.486;7.964;2022-11-12T04:17:53;7.93;;;4.40;;
4839;SDS011;2434;48.486;7.964;2022-11-12T04:20:58;5.27;;;4.77;;
4839;SDS011;2434;48.486;7.964;2022-11-12T04:24:03;4.67;;;4.17;;
4839;SDS011;2434;48.486;7.964;2022-11-12T04:26:50;4.67;;;4.27;;
4839;SDS011;2434;48.486;7.964;2022-11-12T04:29:36;5.13;;;4.63;;
4839;SDS011;2434;48.486;7.964;2022-11-12T04:32:44;4.73;;;4.23;;
4839;SDS011;2434;48.486;7.964;2022-11-12T04:35:33;4.63;;;4.23;;
4839;SDS011;2434;48.486;7.964;2022-11-12T04:38:21;4.83;;;4.43;;
4839;SDS011;2434;48.486;7.964;2022-11-12T04:41:09;8.10;;;5.30;;
4839;SDS011;2434;48.486;7.964;2022-11-12T04:44:13;5.17;;;4.67;;
4839;SDS011;2434;48.486;7.964;2022-11-12T04:47:17;5.00;;;4.50;;
4839;SDS011;2434;48.486;7.964;2022-11-12T04:50:06;4.80;;;4.03;;
4839;SDS011;2434;48.486;7.964;2022-11-12T04:52:57;4.00;;;3.70;;
4839;SDS011;2434;48.486;7.964;2022-11-12T04:55:48;3.50;;;3.27;;
4839;SDS011;2434;48.486;7.964;2022-11-12T04:58:35;5.33;;;3.77;;
4839;SDS011;2434;48.486;7.964;2022-11-12T05:01:22;4.03;;;3.70;;
4839;SDS011;2434;48.486;7.964;2022-11-12T05:04:10;4.40;;;4.00;;
4839;SDS011;2434;48.486;7.964;2022-11-12T05:06:57;3.87;;;3.57;;
4839;SDS011;2434;48.486;7.964;2022-11-12T05:09:44;4.40;;;4.00;;
4839;SDS011;2434;48.486;7.964;2022-11-12T05:12:32;4.67;;;3.67;;
4839;SDS011;2434;48.486;7.964;2022-11-12T05:15:19;3.90;;;3.60;;
4839;SDS011;2434;48.486;7.964;2022-11-12T05:18:07;4.37;;;3.83;;
4839;SDS011;2434;48.486;7.964;2022-11-12T05:20:54;4.83;;;3.97;;
4839;SDS011;2434;48.486;7.964;2022-11-12T05:23:41;5.40;;;4.40;;
4839;SDS011;2434;48.486;7.964;2022-11-12T05:26:28;4.27;;;3.60;;
4839;SDS011;2434;48.486;7.964;2022-11-12T05:29:16;4.13;;;3.80;;
4839;SDS011;2434;48.486;7.964;2022-11-12T05:32:03;4.30;;;3.90;;
4839;SDS011;2434;48.486;7.964;2022-11-12T05:34:52;4.03;;;3.67;;
4839;SDS011;2434;48.486;7.964;2022-11-12T05:37:39;3.90;;;3.60;;
4839;SDS011;2434;48.486;7.964;2022-11-12T05:40:26;3.60;;;3.30;;
4839;SDS011;2434;48.486;7.964;2022-11-12T05:43:14;4.40;;;3.63;;
4839;SDS011;2434;48.486;7.964;2022-11-12T05:46:02;3.70;;;3.40;;
4839;SDS011;2434;48.486;7.964;2022-11-12T05:48:50;3.43;;;3.13;;
4839;SDS011;2434;48.486;7.964;2022-11-12T05:51:37;4.70;;;4.23;;
4839;SDS011;2434;48.486;7.964;2022-11-12T05:54:24;4.37;;;4.00;;
4839;SDS011;2434;48.486;7.964;2022-11-12T05:57:11;4.40;;;4.00;;
4839;SDS011;2434;48.486;7.964;2022-11-12T05:59:58;5.93;;;4.30;;
4839;SDS011;2434;48.486;7.964;2022-11-12T06:02:46;3.10;;;2.90;;
4839;SDS011;2434;48.486;7.964;2022-11-12T06:05:33;3.90;;;3.60;;
4839;SDS011;2434;48.486;7.964;2022-11-12T06:08:21;5.27;;;4.03;;
4839;SDS011;2434;48.486;7.964;2022-11-12T06:11:08;3.90;;;3.57;;
4839;SDS011;2434;48.486;7.964;2022-11-12T06:13:54;4.00;;;3.60;;
4839;SDS011;2434;48.486;7.964;2022-11-12T06:16:41;5.10;;;4.33;;
4839;SDS011;2434;48.486;7.964;2022-11-12T06:19:30;4.20;;;3.77;;
4839;SDS011;2434;48.486;7.964;2022-11-12T06:22:17;6.20;;;4.13;;
4839;SDS011;2434;48.486;7.964;2022-11-12T06:25:05;4.33;;;4.00;;
4839;SDS011;2434;48.486;7.964;2022-11-12T06:27:52;6.33;;;4.17;;
4839;SDS011;2434;48.486;7.964;2022-11-12T06:30:39;4.50;;;4.10;;
4839;SDS011;2434;48.486;7.964;2022-11-12T06:33:26;4.30;;;3.90;;
4839;SDS011;2434;48.486;7.964;2022-11-12T06:36:16;4.10;;;3.70;;
4839;SDS011;2434;48.486;7.964;2022-11-12T06:39:04;3.60;;;3.30;;
4839;SDS011;2434;48.486;7.964;2022-11-12T06:41:51;3.90;;;3.50;;
4839;SDS011;2434;48.486;7.964;2022-11-12T06:44:38;3.60;;;3.30;;
4839;SDS011;2434;48.486;7.964;2022-11-12T06:47:25;3.93;;;3.10;;
4839;SDS011;2434;48.486;7.964;2022-11-12T06:50:12;7.23;;;3.83;;
4839;SDS011;2434;48.486;7.964;2022-11-12T06:53:00;4.13;;;3.50;;
4839;SDS011;2434;48.486;7.964;2022-11-12T06:55:47;4.97;;;3.90;;
4839;SDS011;2434;48.486;7.964;2022-11-12T06:58:35;5.07;;;4.53;;
4839;SDS011;2434;48.486;7.964;2022-11-12T07:01:21;4.90;;;4.33;;
4839;SDS011;2434;48.486;7.964;2022-11-12T07:04:08;9.23;;;3.90;;
4839;SDS011;2434;48.486;7.964;2022-11-12T07:06:55;4.67;;;3.87;;
4839;SDS011;2434;48.486;7.964;2022-11-12T07:09:43;6.33;;;4.50;;
4839;SDS011;2434;48.486;7.964;2022-11-12T07:12:30;4.97;;;4.47;;
4839;SDS011;2434;48.486;7.964;2022-11-12T07:15:17;8.17;;;4.47;;
4839;SDS011;2434;48.486;7.964;2022-11-12T07:18:04;6.67;;;4.60;;
4839;SDS011;2434;48.486;7.964;2022-11-12T07:20:51;6.10;;;4.57;;
4839;SDS011;2434;48.486;7.964;2022-11-12T07:23:42;4.53;;;4.10;;
4839;SDS011;2434;48.486;7.964;2022-11-12T07:26:31;5.40;;;4.90;;
4839;SDS011;2434;48.486;7.964;2022-11-12T07:29:18;5.17;;;4.43;;
4839;SDS011;2434;48.486;7.964;2022-11-12T07:32:25;5.63;;;4.10;;
4839;SDS011;2434;48.486;7.964;2022-11-12T07:35:11;20.50;;;5.00;;
4839;SDS011;2434;48.486;7.964;2022-11-12T07:37:59;5.20;;;4.37;;
4839;SDS011;2434;48.486;7.964;2022-11-12T07:40:46;5.80;;;4.90;;
4839;SDS011;2434;48.486;7.964;2022-11-12T07:43:34;5.33;;;4.60;;
4839;SDS011;2434;48.486;7.964;2022-11-12T07:46:23;5.33;;;4.80;;
4839;SDS011;2434;48.486;7.964;2022-11-12T07:49:11;5.50;;;4.40;;
4839;SDS011;2434;48.486;7.964;2022-11-12T07:51:58;6.00;;;4.90;;
4839;SDS011;2434;48.486;7.964;2022-11-12T07:54:45;7.17;;;4.90;;
4839;SDS011;2434;48.486;7.964;2022-11-12T07:57:32;7.73;;;5.50;;
4839;SDS011;2434;48.486;7.964;2022-11-12T08:00:20;6.43;;;5.40;;
4839;SDS011;2434;48.486;7.964;2022-11-12T08:03:08;5.43;;;4.83;;
4839;SDS011;2434;48.486;7.964;2022-11-12T08:05:55;7.97;;;5.30;;
4839;SDS011;2434;48.486;7.964;2022-11-12T08:08:44;7.13;;;5.70;;
4839;SDS011;2434;48.486;7.964;2022-11-12T08:11:31;5.80;;;5.20;;
4839;SDS011;2434;48.486;7.964;2022-11-12T08:14:19;6.00;;;4.93;;
4839;SDS011;2434;48.486;7.964;2022-11-12T08:17:08;5.63;;;4.90;;
4839;SDS011;2434;48.486;7.964;2022-11-12T08:19:55;7.03;;;5.60;;
4839;SDS011;2434;48.486;7.964;2022-11-12T08:22:42;5.37;;;4.87;;
4839;SDS011;2434;48.486;7.964;2022-11-12T08:25:33;11.77;;;8.00;;
4839;SDS011;2434;48.486;7.964;2022-11-12T08:28:20;6.20;;;5.40;;
4839;SDS011;2434;48.486;7.964;2022-11-12T08:31:08;6.07;;;5.23;;
4839;SDS011;2434;48.486;7.964;2022-11-12T08:33:57;6.70;;;5.20;;
4839;SDS011;2434;48.486;7.964;2022-11-12T08:36:56;6.30;;;5.70;;
4839;SDS011;2434;48.486;7.964;2022-11-12T08:39:42;6.77;;;5.60;;
4839;SDS011;2434;48.486;7.964;2022-11-12T08:42:29;5.80;;;5.17;;
4839;SDS011;2434;48.486;7.964;2022-11-12T08:45:16;8.17;;;6.33;;
4839;SDS011;2434;48.486;7.964;2022-11-12T08:48:04;10.47;;;5.90;;
4839;SDS011;2434;48.486;7.964;2022-11-12T08:50:53;7.23;;;5.97;;
4839;SDS011;2434;48.486;7.964;2022-11-12T08:53:41;9.30;;;5.63;;
4839;SDS011;2434;48.486;7.964;2022-11-12T08:56:28;6.87;;;6.17;;
4839;SDS011;2434;48.486;7.964;2022-11-12T08:59:15;7.53;;;6.70;;
4839;SDS011;2434;48.486;7.964;2022-11-12T09:02:02;8.80;;;6.20;;
4839;SDS011;2434;48.486;7.964;2022-11-12T09:04:50;9.87;;;6.27;;
4839;SDS011;2434;48.486;7.964;2022-11-12T09:07:39;16.03;;;7.90;;
4839;SDS011;2434;48.486;7.964;2022-11-12T09:10:35;10.23;;;6.70;;
4839;SDS011;2434;48.486;7.964;2022-11-12T09:13:22;10.30;;;6.67;;
4839;SDS011;2434;48.486;7.964;2022-11-12T09:16:09;15.80;;;7.60;;
4839;SDS011;2434;48.486;7.964;2022-11-12T09:18:56;10.03;;;6.97;;
4839;SDS011;2434;48.486;7.964;2022-11-12T09:21:43;7.60;;;6.60;;
4839;SDS011;2434;48.486;7.964;2022-11-12T09:24:31;11.53;;;6.80;;
4839;SDS011;2434;48.486;7.964;2022-11-12T09:27:18;11.57;;;7.67;;
4839;SDS011;2434;48.486;7.964;2022-11-12T09:30:05;9.13;;;7.20;;
4839;SDS011;2434;48.486;7.964;2022-11-12T09:32:55;6.10;;;5.50;;
4839;SDS011;2434;48.486;7.964;2022-11-12T09:35:43;10.63;;;7.33;;
4839;SDS011;2434;48.486;7.964;2022-11-12T09:38:30;7.60;;;6.33;;
4839;SDS011;2434;48.486;7.964;2022-11-12T09:41:26;10.30;;;7.60;;
4839;SDS011;2434;48.486;7.964;2022-11-12T09:44:18;8.10;;;6.87;;
4839;SDS011;2434;48.486;7.964;2022-11-12T09:47:09;8.17;;;6.50;;
4839;SDS011;2434;48.486;7.964;2022-11-12T09:50:02;9.50;;;6.97;;
4839;SDS011;2434;48.486;7.964;2022-11-12T09:53:04;7.50;;;6.80;;
4839;SDS011;2434;48.486;7.964;2022-11-12T09:55:57;8.17;;;6.23;;
4839;SDS011;2434;48.486;7.964;2022-11-12T09:58:46;8.40;;;6.87;;
4839;SDS011;2434;48.486;7.964;2022-11-12T10:01:36;7.97;;;6.40;;
4839;SDS011;2434;48.486;7.964;2022-11-12T10:04:40;7.83;;;7.00;;
4839;SDS011;2434;48.486;7.964;2022-11-12T10:07:38;7.37;;;6.23;;
4839;SDS011;2434;48.486;7.964;2022-11-12T10:10:33;7.07;;;6.37;;
4839;SDS011;2434;48.486;7.964;2022-11-12T10:13:32;8.90;;;7.27;;
4839;SDS011;2434;48.486;7.964;2022-11-12T10:16:37;8.40;;;7.50;;
4839;SDS011;2434;48.486;7.964;2022-11-12T10:19:39;11.53;;;7.37;;
4839;SDS011;2434;48.486;7.964;2022-11-12T10:22:37;8.93;;;7.20;;
4839;SDS011;2434;48.486;7.964;2022-11-12T10:25:34;6.83;;;6.00;;
4839;SDS011;2434;48.486;7.964;2022-11-12T10:28:26;10.10;;;7.73;;
4839;SDS011;2434;48.486;7.964;2022-11-12T10:31:21;9.00;;;7.00;;
4839;SDS011;2434;48.486;7.964;2022-11-12T10:34:13;8.60;;;6.83;;
4839;SDS011;2434;48.486;7.964;2022-11-12T10:37:03;9.67;;;7.93;;
4839;SDS011;2434;48.486;7.964;2022-11-12T10:39:51;8.37;;;7.13;;
4839;SDS011;2434;48.486;7.964;2022-11-12T10:42:54;12.23;;;8.03;;
4839;SDS011;2434;48.486;7.964;2022-11-12T10:45:42;8.20;;;6.97;;
4839;SDS011;2434;48.486;7.964;2022-11-12T10:48:30;13.83;;;8.37;;
4839;SDS011;2434;48.486;7.964;2022-11-12T10:51:24;9.20;;;8.30;;
4839;SDS011;2434;48.486;7.964;2022-11-12T10:54:24;11.00;;;9.20;;
4839;SDS011;2434;48.486;7.964;2022-11-12T10:57:18;10.37;;;8.00;;
4839;SDS011;2434;48.486;7.964;2022-11-12T11:00:07;12.00;;;8.50;;
4839;SDS011;2434;48.486;7.964;2022-11-12T11:03:05;9.93;;;8.10;;
4839;SDS011;2434;48.486;7.964;2022-11-12T11:06:02;11.13;;;9.30;;
4839;SDS011;2434;48.486;7.964;2022-11-12T11:08:53;9.53;;;8.10;;
4839;SDS011;2434;48.486;7.964;2022-11-12T11:11:59;8.20;;;7.33;;
4839;SDS011;2434;48.486;7.964;2022-11-12T11:14:47;10.40;;;9.23;;
4839;SDS011;2434;48.486;7.964;2022-11-12T11:17:52;9.73;;;8.50;;
4839;SDS011;2434;48.486;7.964;2022-11-12T11:20:41;15.83;;;8.27;;
4839;SDS011;2434;48.486;7.964;2022-11-12T11:23:33;9.67;;;8.63;;
4839;SDS011;2434;48.486;7.964;2022-11-12T11:26:28;10.03;;;7.80;;
4839;SDS011;2434;48.486;7.964;2022-11-12T11:29:29;11.10;;;8.70;;
4839;SDS011;2434;48.486;7.964;2022-11-12T11:32:29;10.93;;;9.20;;
4839;SDS011;2434;48.486;7.964;2022-11-12T11:35:45;11.20;;;8.00;;
4839;SDS011;2434;48.486;7.964;2022-11-12T11:38:43;10.43;;;6.67;;
4839;SDS011;2434;48.486;7.964;2022-11-12T11:41:46;9.97;;;8.80;;
4839;SDS011;2434;48.486;7.964;2022-11-12T11:44:41;15.10;;;9.60;;
4839;SDS011;2434;48.486;7.964;2022-11-12T11:47:39;10.83;;;9.40;;
4839;SDS011;2434;48.486;7.964;2022-11-12T11:50:49;11.47;;;9.70;;
4839;SDS011;2434;48.486;7.964;2022-11-12T11:53:45;11.70;;;9.10;;
4839;SDS011;2434;48.486;7.964;2022-11-12T11:56:39;10.57;;;8.53;;
4839;SDS011;2434;48.486;7.964;2022-11-12T11:59:32;15.83;;;8.23;;
4839;SDS011;2434;48.486;7.964;2022-11-12T12:02:37;9.50;;;8.20;;
4839;SDS011;2434;48.486;7.964;2022-11-12T12:05:39;11.00;;;7.37;;
4839;SDS011;2434;48.486;7.964;2022-11-12T12:08:33;9.40;;;8.20;;
4839;SDS011;2434;48.486;7.964;2022-11-12T12:11:33;11.03;;;8.67;;
4839;SDS011;2434;48.486;7.964;2022-11-12T12:14:35;9.87;;;8.03;;
4839;SDS011;2434;48.486;7.964;2022-11-12T12:17:35;10.70;;;8.67;;
4839;SDS011;2434;48.486;7.964;2022-11-12T12:20:34;9.87;;;8.87;;
4839;SDS011;2434;48.486;7.964;2022-11-12T12:23:30;10.13;;;9.10;;
4839;SDS011;2434;48.486;7.964;2022-11-12T12:26:21;16.77;;;12.47;;
4839;SDS011;2434;48.486;7.964;2022-11-12T12:29:12;18.00;;;13.43;;
4839;SDS011;2434;48.486;7.964;2022-11-12T12:32:06;21.63;;;15.80;;
4839;SDS011;2434;48.486;7.964;2022-11-12T12:34:58;20.77;;;14.63;;
4839;SDS011;2434;48.486;7.964;2022-11-12T12:37:54;23.23;;;16.70;;
4839;SDS011;2434;48.486;7.964;2022-11-12T12:40:48;27.83;;;18.30;;
4839;SDS011;2434;48.486;7.964;2022-11-12T12:43:44;24.63;;;17.73;;
4839;SDS011;2434;48.486;7.964;2022-11-12T12:46:36;30.60;;;19.50;;
4839;SDS011;2434;48.486;7.964;2022-11-12T12:49:29;24.30;;;17.70;;
4839;SDS011;2434;48.486;7.964;2022-11-12T12:52:21;21.03;;;15.80;;
4839;SDS011;2434;48.486;7.964;2022-11-12T12:55:14;23.87;;;16.27;;
4839;SDS011;2434;48.486;7.964;2022-11-12T12:58:22;31.63;;;21.23;;
4839;SDS011;2434;48.486;7.964;2022-11-12T13:01:26;32.03;;;20.67;;
4839;SDS011;2434;48.486;7.964;2022-11-12T13:04:15;28.63;;;19.87;;
4839;SDS011;2434;48.486;7.964;2022-11-12T13:07:04;26.07;;;18.83;;
4839;SDS011;2434;48.486;7.964;2022-11-12T13:13:22;25.07;;;17.63;;
4839;SDS011;2434;48.486;7.964;2022-11-12T13:19:43;40.80;;;22.97;;
4839;SDS011;2434;48.486;7.964;2022-11-12T13:25:37;32.43;;;20.67;;
4839;SDS011;2434;48.486;7.964;2022-11-12T13:28:25;28.97;;;19.03;;
4839;SDS011;2434;48.486;7.964;2022-11-12T13:31:23;32.60;;;20.37;;
4839;SDS011;2434;48.486;7.964;2022-11-12T13:34:12;30.27;;;20.17;;
4839;SDS011;2434;48.486;7.964;2022-11-12T13:37:04;29.03;;;20.60;;
4839;SDS011;2434;48.486;7.964;2022-11-12T13:40:02;30.37;;;19.57;;
4839;SDS011;2434;48.486;7.964;2022-11-12T13:42:50;29.20;;;19.93;;
4839;SDS011;2434;48.486;7.964;2022-11-12T13:45:39;31.47;;;21.23;;
4839;SDS011;2434;48.486;7.964;2022-11-12T13:48:31;39.63;;;22.67;;
4839;SDS011;2434;48.486;7.964;2022-11-12T13:51:27;37.17;;;21.03;;
4839;SDS011;2434;48.486;7.964;2022-11-12T13:54:23;37.83;;;20.70;;
4839;SDS011;2434;48.486;7.964;2022-11-12T13:57:24;35.87;;;18.93;;
4839;SDS011;2434;48.486;7.964;2022-11-12T14:00:21;32.80;;;19.40;;
4839;SDS011;2434;48.486;7.964;2022-11-12T14:03:13;31.10;;;19.07;;
4839;SDS011;2434;48.486;7.964;2022-11-12T14:06:05;26.67;;;17.43;;
4839;SDS011;2434;48.486;7.964;2022-11-12T14:09:16;30.90;;;18.83;;
4839;SDS011;2434;48.486;7.964;2022-11-12T14:12:32;30.17;;;18.10;;
4839;SDS011;2434;48.486;7.964;2022-11-12T14:15:51;31.67;;;19.77;;
4839;SDS011;2434;48.486;7.964;2022-11-12T14:18:55;29.13;;;17.63;;
4839;SDS011;2434;48.486;7.964;2022-11-12T14:22:09;26.53;;;17.53;;
4839;SDS011;2434;48.486;7.964;2022-11-12T14:25:00;27.83;;;18.03;;
4839;SDS011;2434;48.486;7.964;2022-11-12T14:27:50;34.57;;;20.93;;
4839;SDS011;2434;48.486;7.964;2022-11-12T14:30:41;29.93;;;18.90;;
4839;SDS011;2434;48.486;7.964;2022-11-12T14:33:30;34.00;;;20.03;;
4839;SDS011;2434;48.486;7.964;2022-11-12T14:36:17;37.63;;;21.17;;
4839;SDS011;2434;48.486;7.964;2022-11-12T14:39:05;34.90;;;20.77;;
4839;SDS011;2434;48.486;7.964;2022-11-12T14:41:55;35.40;;;22.47;;
4839;SDS011;2434;48.486;7.964;2022-11-12T14:44:45;28.73;;;18.20;;
4839;SDS011;2434;48.486;7.964;2022-11-12T14:47:32;37.50;;;21.70;;
4839;SDS011;2434;48.486;7.964;2022-11-12T14:50:20;31.50;;;19.57;;
4839;SDS011;2434;48.486;7.964;2022-11-12T14:53:11;33.13;;;20.03;;
4839;SDS011;2434;48.486;7.964;2022-11-12T14:56:11;34.60;;;21.07;;
4839;SDS011;2434;48.486;7.964;2022-11-12T14:59:05;38.27;;;22.10;;
4839;SDS011;2434;48.486;7.964;2022-11-12T15:05:20;37.83;;;22.43;;
4839;SDS011;2434;48.486;7.964;2022-11-12T15:08:09;31.40;;;19.90;;
4839;SDS011;2434;48.486;7.964;2022-11-12T15:10:57;43.93;;;25.13;;
4839;SDS011;2434;48.486;7.964;2022-11-12T15:14:08;44.33;;;26.73;;
4839;SDS011;2434;48.486;7.964;2022-11-12T15:17:05;44.53;;;26.20;;
4839;SDS011;2434;48.486;7.964;2022-11-12T15:20:11;47.60;;;26.97;;
4839;SDS011;2434;48.486;7.964;2022-11-12T15:23:00;43.70;;;25.73;;
4839;SDS011;2434;48.486;7.964;2022-11-12T15:25:56;45.43;;;26.77;;
4839;SDS011;2434;48.486;7.964;2022-11-12T15:28:56;49.90;;;27.57;;
4839;SDS011;2434;48.486;7.964;2022-11-12T15:31:45;54.30;;;30.10;;
4839;SDS011;2434;48.486;7.964;2022-11-12T15:34:44;52.13;;;29.77;;
4839;SDS011;2434;48.486;7.964;2022-11-12T15:37:35;54.07;;;29.40;;
4839;SDS011;2434;48.486;7.964;2022-11-12T15:40:27;57.13;;;29.90;;
4839;SDS011;2434;48.486;7.964;2022-11-12T15:43:16;42.80;;;25.30;;
4839;SDS011;2434;48.486;7.964;2022-11-12T15:46:09;47.53;;;27.33;;
4839;SDS011;2434;48.486;7.964;2022-11-12T15:48:59;41.40;;;24.70;;
4839;SDS011;2434;48.486;7.964;2022-11-12T15:51:47;36.27;;;22.53;;
4839;SDS011;2434;48.486;7.964;2022-11-12T15:54:34;38.57;;;24.13;;
4839;SDS011;2434;48.486;7.964;2022-11-12T15:57:26;45.83;;;29.83;;
4839;SDS011;2434;48.486;7.964;2022-11-12T16:00:16;48.60;;;26.20;;
4839;SDS011;2434;48.486;7.964;2022-11-12T16:03:09;52.37;;;27.30;;
4839;SDS011;2434;48.486;7.964;2022-11-12T16:05:59;41.40;;;25.50;;
4839;SDS011;2434;48.486;7.964;2022-11-12T16:08:53;48.00;;;28.30;;
4839;SDS011;2434;48.486;7.964;2022-11-12T16:11:40;55.03;;;29.37;;
4839;SDS011;2434;48.486;7.964;2022-11-12T16:14:27;44.57;;;24.80;;
4839;SDS011;2434;48.486;7.964;2022-11-12T16:17:15;42.10;;;23.87;;
4839;SDS011;2434;48.486;7.964;2022-11-12T16:20:05;42.83;;;23.37;;
4839;SDS011;2434;48.486;7.964;2022-11-12T16:22:59;45.70;;;24.20;;
4839;SDS011;2434;48.486;7.964;2022-11-12T16:25:48;47.17;;;25.53;;
4839;SDS011;2434;48.486;7.964;2022-11-12T16:28:35;43.33;;;25.00;;
4839;SDS011;2434;48.486;7.964;2022-11-12T16:31:22;40.40;;;24.93;;
4839;SDS011;2434;48.486;7.964;2022-11-12T16:34:09;38.73;;;23.97;;
4839;SDS011;2434;48.486;7.964;2022-11-12T16:36:56;39.53;;;21.30;;
4839;SDS011;2434;48.486;7.964;2022-11-12T16:39:44;46.93;;;25.50;;
4839;SDS011;2434;48.486;7.964;2022-11-12T16:42:32;40.10;;;22.77;;
4839;SDS011;2434;48.486;7.964;2022-11-12T16:45:19;57.50;;;26.77;;
4839;SDS011;2434;48.486;7.964;2022-11-12T16:48:10;47.00;;;25.67;;
4839;SDS011;2434;48.486;7.964;2022-11-12T16:51:00;53.37;;;26.43;;
4839;SDS011;2434;48.486;7.964;2022-11-12T16:53:47;41.63;;;24.30;;
4839;SDS011;2434;48.486;7.964;2022-11-12T16:56:35;51.90;;;26.40;;
4839;SDS011;2434;48.486;7.964;2022-11-12T16:59:23;62.23;;;28.80;;
4839;SDS011;2434;48.486;7.964;2022-11-12T17:02:12;59.73;;;26.43;;
4839;SDS011;2434;48.486;7.964;2022-11-12T17:05:00;71.60;;;28.33;;
4839;SDS011;2434;48.486;7.964;2022-11-12T17:07:48;65.73;;;28.70;;
4839;SDS011;2434;48.486;7.964;2022-11-12T17:10:40;58.60;;;26.47;;
4839;SDS011;2434;48.486;7.964;2022-11-12T17:13:26;63.73;;;29.40;;
4839;SDS011;2434;48.486;7.964;2022-11-12T17:16:15;53.23;;;26.40;;
4839;SDS011;2434;48.486;7.964;2022-11-12T17:19:02;61.67;;;30.17;;
4839;SDS011;2434;48.486;7.964;2022-11-12T17:21:50;55.50;;;28.33;;
4839;SDS011;2434;48.486;7.964;2022-11-12T17:24:37;56.83;;;25.50;;
4839;SDS011;2434;48.486;7.964;2022-11-12T17:27:24;57.43;;;27.90;;
4839;SDS011;2434;48.486;7.964;2022-11-12T17:30:11;74.03;;;27.97;;
4839;SDS011;2434;48.486;7.964;2022-11-12T17:32:59;48.53;;;26.57;;
4839;SDS011;2434;48.486;7.964;2022-11-12T17:35:46;47.83;;;25.40;;
4839;SDS011;2434;48.486;7.964;2022-11-12T17:38:33;40.60;;;24.50;;
4839;SDS011;2434;48.486;7.964;2022-11-12T17:41:20;43.73;;;23.93;;